createdAt,value
2022-12-08T00:00:06.683Z,1.41
2022-12-08T00:01:13.654Z,1.37
2022-12-08T00:01:47.290Z,1.34
2022-12-08T00:02:20.979Z,1.34
2022-12-08T00:02:54.639Z,1.34
2022-12-08T00:03:28.363Z,1.35
2022-12-08T00:04:04.392Z,1.36
2022-12-08T00:04:57.944Z,1.37
2022-12-08T00:05:50.360Z,1.36
2022-12-08T00:06:46.987Z,1.35
2022-12-08T00:07:39.324Z,1.32
2022-12-08T00:08:31.670Z,1.31
2022-12-08T00:09:23.236Z,1.30
2022-12-08T00:09:56.657Z,1.26
2022-12-08T00:11:23.749Z,1.23
2022-12-08T00:12:18.765Z,1.23
2022-12-08T00:12:52.170Z,1.25
2022-12-08T00:13:25.569Z,1.24
2022-12-08T00:13:59.188Z,1.23
2022-12-08T00:14:41.248Z,1.25
2022-12-08T00:15:14.964Z,1.26
2022-12-08T00:15:48.493Z,1.28
2022-12-08T00:16:22.320Z,1.31
2022-12-08T00:16:56.623Z,1.32
2022-12-08T00:17:30.063Z,1.32
2022-12-08T00:18:03.615Z,1.32
2022-12-08T00:18:37.330Z,1.32
2022-12-08T00:19:10.849Z,1.34
2022-12-08T00:19:45.440Z,1.35
2022-12-08T00:20:19.000Z,1.36
2022-12-08T00:20:58.805Z,1.37
2022-12-08T00:21:32.260Z,1.38
2022-12-08T00:22:07.257Z,1.39
2022-12-08T00:22:40.635Z,1.41
2022-12-08T00:23:14.092Z,1.42
2022-12-08T00:23:47.485Z,1.43
2022-12-08T00:24:22.470Z,1.43
2022-12-08T00:24:56.319Z,1.42
2022-12-08T00:25:32.254Z,1.41
2022-12-08T00:26:06.531Z,1.40
2022-12-08T00:26:40.217Z,1.39
2022-12-08T00:27:16.173Z,1.45
2022-12-08T00:27:50.479Z,1.43
2022-12-08T00:28:23.969Z,1.43
2022-12-08T00:28:57.789Z,1.43
2022-12-08T00:29:31.459Z,1.42
2022-12-08T00:30:05.882Z,1.42
2022-12-08T00:30:43.054Z,1.42
2022-12-08T00:31:19.539Z,1.42
2022-12-08T00:31:53.510Z,1.42
2022-12-08T00:32:28.061Z,1.43
2022-12-08T00:33:02.107Z,1.41
2022-12-08T00:33:35.914Z,1.39
2022-12-08T00:34:09.374Z,1.37
2022-12-08T00:34:42.795Z,1.36
2022-12-08T00:35:16.214Z,1.36
2022-12-08T00:35:49.626Z,1.36
2022-12-08T00:36:23.129Z,1.35
2022-12-08T00:36:56.554Z,1.35
2022-12-08T00:37:30.228Z,1.36
2022-12-08T00:38:03.755Z,1.37
2022-12-08T00:38:37.843Z,1.36
2022-12-08T00:39:13.040Z,1.37
2022-12-08T00:39:46.466Z,1.37
2022-12-08T00:40:19.875Z,1.37
2022-12-08T00:40:53.381Z,1.37
2022-12-08T00:41:46.839Z,1.37
2022-12-08T00:42:20.336Z,1.36
2022-12-08T00:42:53.922Z,1.36
2022-12-08T00:43:27.371Z,1.37
2022-12-08T00:44:00.818Z,1.38
2022-12-08T00:44:34.688Z,1.38
2022-12-08T00:45:08.459Z,1.38
2022-12-08T00:45:41.919Z,1.38
2022-12-08T00:46:15.373Z,1.37
2022-12-08T00:46:49.777Z,1.37
2022-12-08T00:47:24.948Z,1.38
2022-12-08T00:47:58.704Z,1.32
2022-12-08T00:48:32.431Z,1.36
2022-12-08T00:49:06.316Z,1.35
2022-12-08T00:49:40.213Z,1.34
2022-12-08T00:50:13.978Z,1.34
2022-12-08T00:50:47.356Z,1.34
2022-12-08T00:51:20.794Z,1.34
2022-12-08T00:51:54.226Z,1.36
2022-12-08T00:52:27.612Z,1.36
2022-12-08T00:53:00.994Z,1.36
2022-12-08T00:53:34.517Z,1.36
2022-12-08T00:54:07.985Z,1.39
2022-12-08T00:54:41.531Z,1.38
2022-12-08T00:55:15.038Z,1.38
2022-12-08T00:55:48.455Z,1.40
2022-12-08T00:56:21.872Z,1.41
2022-12-08T00:56:55.318Z,1.39
2022-12-08T00:57:28.625Z,1.35
2022-12-08T00:58:02.212Z,1.30
2022-12-08T00:58:35.699Z,1.27
2022-12-08T00:59:09.226Z,1.24
2022-12-08T00:59:42.603Z,1.22
2022-12-08T01:00:16.501Z,1.22
2022-12-08T01:00:49.961Z,1.21
2022-12-08T01:01:24.282Z,1.19
2022-12-08T01:01:57.788Z,1.17
2022-12-08T01:02:33.497Z,1.17
2022-12-08T01:03:06.989Z,1.15
2022-12-08T01:03:41.803Z,1.14
2022-12-08T01:04:17.555Z,1.12
2022-12-08T01:04:51.426Z,1.11
2022-12-08T01:05:24.764Z,1.10
2022-12-08T01:06:03.926Z,1.08
2022-12-08T01:06:38.125Z,1.05
2022-12-08T01:07:12.092Z,1.04
2022-12-08T01:07:45.563Z,1.03
2022-12-08T01:08:19.182Z,1.03
2022-12-08T01:08:52.757Z,1.00
2022-12-08T01:09:26.162Z,1.00
2022-12-08T01:10:00.668Z,1.01
2022-12-08T01:10:38.291Z,1.01
2022-12-08T01:11:15.908Z,1.00
2022-12-08T01:11:49.349Z,1.02
2022-12-08T01:12:23.229Z,0.99
2022-12-08T01:12:56.690Z,1.01
2022-12-08T01:13:30.205Z,1.01
2022-12-08T01:14:04.190Z,1.00
2022-12-08T01:14:37.774Z,0.99
2022-12-08T01:15:11.385Z,0.96
2022-12-08T01:15:45.017Z,1.00
2022-12-08T01:16:26.805Z,1.00
2022-12-08T01:17:00.326Z,0.96
2022-12-08T01:17:33.813Z,0.91
2022-12-08T01:18:07.184Z,0.91
2022-12-08T01:18:40.583Z,0.90
2022-12-08T01:19:16.400Z,0.91
2022-12-08T01:19:49.837Z,0.91
2022-12-08T01:20:23.250Z,0.93
2022-12-08T01:21:02.955Z,0.93
2022-12-08T01:21:36.337Z,0.94
2022-12-08T01:22:09.689Z,0.93
2022-12-08T01:22:43.119Z,0.93
2022-12-08T01:23:16.607Z,0.92
2022-12-08T01:23:50.008Z,0.91
2022-12-08T01:24:23.425Z,0.92
2022-12-08T01:24:56.964Z,0.96
2022-12-08T01:25:30.500Z,0.98
2022-12-08T01:26:08.792Z,0.97
2022-12-08T01:26:42.470Z,0.91
2022-12-08T01:27:17.725Z,0.90
2022-12-08T01:27:52.619Z,0.87
2022-12-08T01:28:25.999Z,0.82
2022-12-08T01:28:59.398Z,0.79
2022-12-08T01:29:32.871Z,0.78
2022-12-08T01:30:07.389Z,0.77
2022-12-08T01:30:41.282Z,0.76
2022-12-08T01:31:20.745Z,0.75
2022-12-08T01:31:54.180Z,0.73
2022-12-08T01:32:27.593Z,0.72
2022-12-08T01:33:02.143Z,0.79
2022-12-08T01:33:35.532Z,0.76
2022-12-08T01:34:09.199Z,0.74
2022-12-08T01:34:43.320Z,0.71
2022-12-08T01:35:16.832Z,0.67
2022-12-08T01:35:50.246Z,0.67
2022-12-08T01:36:29.005Z,0.67
2022-12-08T01:37:02.356Z,0.67
2022-12-08T01:37:35.809Z,0.67
2022-12-08T01:38:09.179Z,0.68
2022-12-08T01:38:42.555Z,0.68
2022-12-08T01:39:19.064Z,0.66
2022-12-08T01:39:52.477Z,0.65
2022-12-08T01:40:25.884Z,0.64
2022-12-08T01:40:59.462Z,0.64
2022-12-08T01:41:34.605Z,0.64
2022-12-08T01:42:20.158Z,0.65
2022-12-08T01:42:53.580Z,0.63
2022-12-08T01:44:04.215Z,0.63
2022-12-08T01:44:37.626Z,0.61
2022-12-08T01:45:22.605Z,0.60
2022-12-08T01:45:56.196Z,0.61
2022-12-08T01:46:32.593Z,0.60
2022-12-08T01:47:06.075Z,0.62
2022-12-08T01:47:46.906Z,0.62
2022-12-08T01:48:27.869Z,0.64
2022-12-08T01:49:01.545Z,0.64
2022-12-08T01:49:36.656Z,0.61
2022-12-08T01:50:13.435Z,0.62
2022-12-08T01:50:49.215Z,0.62
2022-12-08T01:51:23.125Z,0.64
2022-12-08T01:52:14.512Z,0.65
2022-12-08T01:52:55.274Z,0.66
2022-12-08T01:53:32.980Z,0.66
2022-12-08T01:54:08.141Z,0.64
2022-12-08T01:55:06.568Z,0.63
2022-12-08T01:55:47.019Z,0.61
2022-12-08T01:56:36.770Z,0.61
2022-12-08T01:57:23.919Z,0.58
2022-12-08T01:58:05.660Z,0.61
2022-12-08T01:58:44.010Z,0.62
2022-12-08T01:59:18.153Z,0.63
2022-12-08T02:00:19.055Z,0.63
2022-12-08T02:00:53.209Z,0.62
2022-12-08T02:01:27.001Z,0.65
2022-12-08T02:02:00.869Z,0.66
2022-12-08T02:02:57.457Z,0.66
2022-12-08T02:03:49.295Z,0.62
2022-12-08T02:04:22.725Z,0.60
2022-12-08T02:04:56.221Z,0.60
2022-12-08T02:05:33.570Z,0.61
2022-12-08T02:06:07.684Z,0.64
2022-12-08T02:06:44.275Z,0.64
2022-12-08T02:07:18.775Z,0.66
2022-12-08T02:07:52.948Z,0.67
2022-12-08T02:08:27.095Z,0.67
2022-12-08T02:09:03.509Z,0.69
2022-12-08T02:09:38.590Z,0.70
2022-12-08T02:10:16.784Z,0.73
2022-12-08T02:10:53.008Z,0.68
2022-12-08T02:11:26.432Z,0.66
2022-12-08T02:12:00.960Z,0.64
2022-12-08T02:12:35.441Z,0.64
2022-12-08T02:13:15.040Z,0.63
2022-12-08T02:13:50.926Z,0.63
2022-12-08T02:14:25.516Z,0.62
2022-12-08T02:15:04.837Z,0.64
2022-12-08T02:15:44.713Z,0.65
2022-12-08T02:16:52.606Z,0.61
2022-12-08T02:17:42.350Z,0.52
2022-12-08T02:18:36.977Z,0.49
2022-12-08T02:19:36.449Z,0.46
2022-12-08T02:20:27.980Z,0.44
2022-12-08T02:21:14.300Z,0.40
2022-12-08T02:22:14.577Z,0.39
2022-12-08T02:23:33.478Z,0.36
2022-12-08T02:24:28.611Z,0.33
2022-12-08T02:25:23.560Z,0.30
2022-12-08T02:26:29.410Z,0.30
2022-12-08T02:27:27.203Z,0.28
2022-12-08T02:28:00.480Z,0.24
2022-12-08T02:28:55.210Z,0.26
2022-12-08T02:29:47.427Z,0.25
2022-12-08T02:30:23.655Z,0.22
2022-12-08T02:30:56.982Z,0.21
2022-12-08T02:32:11.526Z,0.20
2022-12-08T02:33:49.975Z,0.16
2022-12-08T02:34:51.160Z,0.09
2022-12-08T02:35:42.479Z,0.06
2022-12-08T02:36:24.757Z,0.02
2022-12-08T02:37:17.046Z,0.03
2022-12-08T02:38:04.088Z,0.02
2022-12-08T02:38:52.340Z,0.00
2022-12-08T02:39:54.805Z,-0.02
2022-12-08T02:40:35.524Z,-0.07
2022-12-08T02:41:29.515Z,-0.08
2022-12-08T02:42:02.923Z,-0.14
2022-12-08T02:42:56.000Z,-0.14
2022-12-08T02:43:43.361Z,-0.16
2022-12-08T02:44:33.303Z,-0.21
2022-12-08T02:45:15.154Z,-0.21
2022-12-08T02:45:54.281Z,-0.23
2022-12-08T02:46:35.775Z,-0.24
2022-12-08T02:47:14.265Z,-0.23
2022-12-08T02:47:48.200Z,-0.23
2022-12-08T02:48:21.944Z,-0.25
2022-12-08T02:48:57.528Z,-0.25
2022-12-08T02:50:44.058Z,-0.34
2022-12-08T02:51:17.449Z,-0.41
2022-12-08T02:51:50.839Z,-0.44
2022-12-08T02:52:24.161Z,-0.44
2022-12-08T02:52:57.581Z,-0.44
2022-12-08T02:53:35.000Z,-0.44
2022-12-08T02:54:09.391Z,-0.45
2022-12-08T02:55:02.159Z,-0.45
2022-12-08T02:55:50.894Z,-0.49
2022-12-08T02:56:45.545Z,-0.51
2022-12-08T02:57:33.173Z,-0.56
2022-12-08T02:58:39.037Z,-0.58
2022-12-08T02:59:43.806Z,-0.66
2022-12-08T03:00:20.906Z,-0.72
2022-12-08T03:01:12.965Z,-0.73
2022-12-08T03:02:06.037Z,-0.74
2022-12-08T03:02:50.397Z,-0.78
2022-12-08T03:03:41.121Z,-0.78
2022-12-08T03:04:20.646Z,-0.79
2022-12-08T03:05:29.290Z,-0.81
2022-12-08T03:06:17.175Z,-0.87
2022-12-08T03:07:14.971Z,-0.89
2022-12-08T03:07:58.485Z,-0.92
2022-12-08T03:08:42.489Z,-0.94
2022-12-08T03:09:30.994Z,-0.95
2022-12-08T03:10:13.975Z,-0.95
2022-12-08T03:11:30.403Z,-0.97
2022-12-08T03:12:21.059Z,-1.05
2022-12-08T03:13:08.250Z,-1.09
2022-12-08T03:13:46.835Z,-1.12
2022-12-08T03:14:22.335Z,-1.14
2022-12-08T03:14:59.640Z,-1.13
2022-12-08T03:15:35.655Z,-1.15
2022-12-08T03:16:13.305Z,-1.14
2022-12-08T03:16:52.195Z,-1.15
2022-12-08T03:17:30.185Z,-1.16
2022-12-08T03:18:06.812Z,-1.16
2022-12-08T03:18:45.836Z,-1.17
2022-12-08T03:19:23.610Z,-1.18
2022-12-08T03:20:02.178Z,-1.19
2022-12-08T03:20:36.431Z,-1.19
2022-12-08T03:21:12.284Z,-1.19
2022-12-08T03:21:50.919Z,-1.20
2022-12-08T03:22:27.479Z,-1.21
2022-12-08T03:23:05.230Z,-1.23
2022-12-08T03:23:39.700Z,-1.24
2022-12-08T03:24:15.588Z,-1.26
2022-12-08T03:24:49.828Z,-1.26
2022-12-08T03:25:25.666Z,-1.28
2022-12-08T03:26:08.770Z,-1.29
2022-12-08T03:26:49.165Z,-1.31
2022-12-08T03:27:28.980Z,-1.33
2022-12-08T03:28:02.882Z,-1.33
2022-12-08T03:28:36.463Z,-1.34
2022-12-08T03:29:10.947Z,-1.34
2022-12-08T03:29:44.395Z,-1.35
2022-12-08T03:30:18.709Z,-1.35
2022-12-08T03:30:56.031Z,-1.36
2022-12-08T03:31:33.361Z,-1.37
2022-12-08T03:32:16.376Z,-1.39
2022-12-08T03:32:53.571Z,-1.41
2022-12-08T03:33:33.220Z,-1.43
2022-12-08T03:34:08.221Z,-1.44
2022-12-08T03:34:44.560Z,-1.44
2022-12-08T03:35:23.499Z,-1.44
2022-12-08T03:35:58.865Z,-1.44
2022-12-08T03:36:32.665Z,-1.46
2022-12-08T03:37:06.489Z,-1.47
2022-12-08T03:37:41.241Z,-1.47
2022-12-08T03:38:16.955Z,-1.48
2022-12-08T03:38:53.116Z,-1.47
2022-12-08T03:39:26.590Z,-1.46
2022-12-08T03:39:59.991Z,-1.45
2022-12-08T03:40:33.643Z,-1.45
2022-12-08T03:41:19.707Z,-1.45
2022-12-08T03:41:53.245Z,-1.49
2022-12-08T03:42:26.784Z,-1.51
2022-12-08T03:43:00.624Z,-1.52
2022-12-08T03:43:34.226Z,-1.52
2022-12-08T03:44:07.735Z,-1.53
2022-12-08T03:44:41.210Z,-1.54
2022-12-08T03:45:14.735Z,-1.54
2022-12-08T03:45:48.240Z,-1.53
2022-12-08T03:46:56.593Z,-1.54
2022-12-08T03:47:30.666Z,-1.55
2022-12-08T03:48:04.171Z,-1.56
2022-12-08T03:48:37.647Z,-1.58
2022-12-08T03:49:11.036Z,-1.58
2022-12-08T03:49:44.335Z,-1.59
2022-12-08T03:50:17.810Z,-1.58
2022-12-08T03:50:51.245Z,-1.58
2022-12-08T03:51:25.377Z,-1.58
2022-12-08T03:51:58.708Z,-1.58
2022-12-08T03:52:32.090Z,-1.59
2022-12-08T03:53:05.412Z,-1.60
2022-12-08T03:53:39.326Z,-1.60
2022-12-08T03:54:12.732Z,-1.62
2022-12-08T03:54:46.240Z,-1.65
2022-12-08T03:55:19.580Z,-1.67
2022-12-08T03:55:54.188Z,-1.67
2022-12-08T03:56:34.099Z,-1.68
2022-12-08T03:57:07.503Z,-1.70
2022-12-08T03:57:41.385Z,-1.69
2022-12-08T03:58:14.926Z,-1.65
2022-12-08T03:58:48.281Z,-1.78
2022-12-08T03:59:21.746Z,-1.86
2022-12-08T03:59:55.140Z,-1.91
2022-12-08T04:00:28.522Z,-1.99
2022-12-08T04:01:01.874Z,-1.93
2022-12-08T04:01:35.385Z,-1.96
2022-12-08T04:02:08.824Z,-1.98
2022-12-08T04:02:42.283Z,-1.98
2022-12-08T04:03:16.007Z,-2.00
2022-12-08T04:03:49.876Z,-2.01
2022-12-08T04:04:23.318Z,-2.03
2022-12-08T04:04:56.785Z,-2.03
2022-12-08T04:05:30.175Z,-2.02
2022-12-08T04:06:03.580Z,-2.01
2022-12-08T04:06:37.032Z,-2.01
2022-12-08T04:07:10.446Z,-1.99
2022-12-08T04:07:44.089Z,-1.98
2022-12-08T04:08:17.717Z,-1.97
2022-12-08T04:08:51.809Z,-1.97
2022-12-08T04:09:25.377Z,-1.97
2022-12-08T04:09:58.726Z,-1.98
2022-12-08T04:10:32.325Z,-1.97
2022-12-08T04:11:06.803Z,-1.95
2022-12-08T04:11:40.218Z,-1.93
2022-12-08T04:12:13.581Z,-1.93
2022-12-08T04:12:46.981Z,-1.91
2022-12-08T04:13:20.386Z,-1.90
2022-12-08T04:13:53.710Z,-1.91
2022-12-08T04:14:27.175Z,-1.89
2022-12-08T04:15:00.540Z,-1.88
2022-12-08T04:15:36.410Z,-1.89
2022-12-08T04:16:14.961Z,-1.86
2022-12-08T04:16:48.360Z,-1.86
2022-12-08T04:17:21.805Z,-1.84
2022-12-08T04:17:55.284Z,-1.83
2022-12-08T04:18:29.192Z,-1.81
2022-12-08T04:19:02.611Z,-1.80
2022-12-08T04:19:36.105Z,-1.78
2022-12-08T04:20:09.955Z,-1.76
2022-12-08T04:20:45.088Z,-1.74
2022-12-08T04:21:18.522Z,-1.73
2022-12-08T04:21:51.914Z,-1.72
2022-12-08T04:22:25.318Z,-1.72
2022-12-08T04:22:58.841Z,-1.72
2022-12-08T04:23:32.348Z,-1.71
2022-12-08T04:24:05.976Z,-1.71
2022-12-08T04:24:39.635Z,-1.70
2022-12-08T04:25:13.247Z,-1.70
2022-12-08T04:25:46.713Z,-1.69
2022-12-08T04:26:20.352Z,-1.69
2022-12-08T04:26:53.741Z,-1.69
2022-12-08T04:27:27.277Z,-1.69
2022-12-08T04:28:00.675Z,-1.69
2022-12-08T04:28:34.517Z,-1.67
2022-12-08T04:29:07.963Z,-1.69
2022-12-08T04:29:41.406Z,-1.69
2022-12-08T04:30:15.087Z,-1.68
2022-12-08T04:30:49.853Z,-1.67
2022-12-08T04:31:23.333Z,-1.66
2022-12-08T04:31:56.882Z,-1.64
2022-12-08T04:32:30.321Z,-1.64
2022-12-08T04:33:06.650Z,-1.63
2022-12-08T04:33:40.164Z,-1.62
2022-12-08T04:34:13.574Z,-1.61
2022-12-08T04:34:46.928Z,-1.62
2022-12-08T04:35:20.446Z,-1.63
2022-12-08T04:35:53.864Z,-1.64
2022-12-08T04:36:27.335Z,-1.64
2022-12-08T04:37:00.659Z,-1.64
2022-12-08T04:37:34.091Z,-1.64
2022-12-08T04:38:07.516Z,-1.63
2022-12-08T04:38:41.031Z,-1.62
2022-12-08T04:39:14.396Z,-1.61
2022-12-08T04:39:47.791Z,-1.61
2022-12-08T04:40:21.237Z,-1.61
2022-12-08T04:40:54.730Z,-1.62
2022-12-08T04:41:28.172Z,-1.62
2022-12-08T04:42:01.589Z,-1.63
2022-12-08T04:42:34.961Z,-1.62
2022-12-08T04:43:08.570Z,-1.65
2022-12-08T04:43:44.606Z,-1.63
2022-12-08T04:44:18.030Z,-1.61
2022-12-08T04:44:51.419Z,-1.60
2022-12-08T04:45:24.835Z,-1.59
2022-12-08T04:45:58.150Z,-1.58
2022-12-08T04:46:31.762Z,-1.59
2022-12-08T04:47:05.253Z,-1.58
2022-12-08T04:47:38.801Z,-1.58
2022-12-08T04:48:15.172Z,-1.58
2022-12-08T04:48:48.960Z,-1.59
2022-12-08T04:49:22.401Z,-1.59
2022-12-08T04:49:55.965Z,-1.60
2022-12-08T04:50:29.378Z,-1.58
2022-12-08T04:51:02.806Z,-1.59
2022-12-08T04:51:36.152Z,-1.58
2022-12-08T04:52:09.619Z,-1.58
2022-12-08T04:52:43.105Z,-1.58
2022-12-08T04:53:16.720Z,-1.57
2022-12-08T04:53:50.176Z,-1.59
2022-12-08T04:54:23.563Z,-1.57
2022-12-08T04:54:56.975Z,-1.57
2022-12-08T04:55:30.340Z,-1.58
2022-12-08T04:56:03.874Z,-1.59
2022-12-08T04:56:37.750Z,-1.59
2022-12-08T04:57:11.105Z,-1.59
2022-12-08T04:57:44.590Z,-1.60
2022-12-08T04:58:21.439Z,-1.59
2022-12-08T04:58:55.328Z,-1.59
2022-12-08T04:59:29.210Z,-1.59
2022-12-08T05:00:03.039Z,-1.60
2022-12-08T05:00:36.976Z,-1.60
2022-12-08T05:01:10.687Z,-1.60
2022-12-08T05:01:44.447Z,-1.62
2022-12-08T05:02:18.199Z,-1.64
2022-12-08T05:02:51.928Z,-1.65
2022-12-08T05:03:28.710Z,-1.66
2022-12-08T05:04:02.287Z,-1.70
2022-12-08T05:04:35.940Z,-1.70
2022-12-08T05:05:12.216Z,-1.71
2022-12-08T05:05:46.763Z,-1.71
2022-12-08T05:06:20.222Z,-1.73
2022-12-08T05:06:53.897Z,-1.74
2022-12-08T05:07:27.569Z,-1.73
2022-12-08T05:08:01.016Z,-1.75
2022-12-08T05:08:34.587Z,-1.77
2022-12-08T05:09:08.030Z,-1.78
2022-12-08T05:09:41.467Z,-1.79
2022-12-08T05:10:14.920Z,-1.80
2022-12-08T05:10:48.304Z,-1.80
2022-12-08T05:11:21.770Z,-1.81
2022-12-08T05:11:55.345Z,-1.81
2022-12-08T05:12:28.745Z,-1.82
2022-12-08T05:13:02.193Z,-1.84
2022-12-08T05:13:35.756Z,-1.84
2022-12-08T05:14:12.275Z,-1.85
2022-12-08T05:14:51.215Z,-1.87
2022-12-08T05:15:24.649Z,-1.89
2022-12-08T05:16:06.930Z,-1.90
2022-12-08T05:16:40.393Z,-1.91
2022-12-08T05:17:14.840Z,-1.91
2022-12-08T05:17:48.180Z,-1.92
2022-12-08T05:18:21.508Z,-1.92
2022-12-08T05:18:54.813Z,-1.92
2022-12-08T05:19:28.132Z,-1.92
2022-12-08T05:20:01.786Z,-1.92
2022-12-08T05:20:36.051Z,-1.93
2022-12-08T05:21:09.996Z,-1.93
2022-12-08T05:21:43.815Z,-1.93
2022-12-08T05:22:17.305Z,-1.93
2022-12-08T05:22:50.684Z,-1.93
2022-12-08T05:23:24.057Z,-1.93
2022-12-08T05:23:57.420Z,-1.93
2022-12-08T05:24:30.778Z,-1.93
2022-12-08T05:25:04.492Z,-1.93
2022-12-08T05:25:38.017Z,-1.93
2022-12-08T05:26:11.542Z,-1.94
2022-12-08T05:26:45.045Z,-1.93
2022-12-08T05:27:18.406Z,-1.93
2022-12-08T05:27:55.300Z,-1.93
2022-12-08T05:28:43.508Z,-1.93
2022-12-08T05:29:17.405Z,-1.94
2022-12-08T05:29:50.772Z,-1.94
2022-12-08T05:30:24.385Z,-1.93
2022-12-08T05:30:57.853Z,-1.92
2022-12-08T05:31:31.543Z,-1.92
2022-12-08T05:32:05.270Z,-1.91
2022-12-08T05:32:38.777Z,-1.91
2022-12-08T05:33:12.264Z,-1.90
2022-12-08T05:33:46.320Z,-1.89
2022-12-08T05:34:19.716Z,-1.88
2022-12-08T05:34:53.175Z,-1.87
2022-12-08T05:35:26.580Z,-1.85
2022-12-08T05:36:00.426Z,-1.85
2022-12-08T05:36:33.845Z,-1.84
2022-12-08T05:37:07.212Z,-1.84
2022-12-08T05:37:40.635Z,-1.82
2022-12-08T05:38:14.070Z,-1.81
2022-12-08T05:38:47.515Z,-1.81
2022-12-08T05:39:20.951Z,-1.81
2022-12-08T05:39:54.468Z,-1.80
2022-12-08T05:40:27.839Z,-1.80
2022-12-08T05:41:01.306Z,-1.79
2022-12-08T05:41:34.676Z,-1.78
2022-12-08T05:42:08.027Z,-1.78
2022-12-08T05:42:41.448Z,-1.76
2022-12-08T05:43:15.425Z,-1.76
2022-12-08T05:43:49.574Z,-1.75
2022-12-08T05:44:23.035Z,-1.75
2022-12-08T05:44:56.483Z,-1.74
2022-12-08T05:45:29.918Z,-1.73
2022-12-08T05:46:03.528Z,-1.73
2022-12-08T05:46:37.442Z,-1.72
2022-12-08T05:47:10.887Z,-1.73
2022-12-08T05:47:44.473Z,-1.71
2022-12-08T05:48:17.904Z,-1.72
2022-12-08T05:48:51.285Z,-1.75
2022-12-08T05:49:24.675Z,-1.79
2022-12-08T05:49:58.125Z,-1.75
2022-12-08T05:50:33.342Z,-1.74
2022-12-08T05:51:28.591Z,-1.73
2022-12-08T05:52:02.063Z,-1.74
2022-12-08T05:52:35.388Z,-1.74
2022-12-08T05:53:08.817Z,-1.72
2022-12-08T05:53:42.214Z,-1.72
2022-12-08T05:54:15.813Z,-1.70
2022-12-08T05:54:49.199Z,-1.68
2022-12-08T05:55:22.726Z,-1.67
2022-12-08T05:55:56.277Z,-1.66
2022-12-08T05:56:29.654Z,-1.64
2022-12-08T05:57:03.081Z,-1.63
2022-12-08T05:57:36.416Z,-1.63
2022-12-08T05:58:13.452Z,-1.63
2022-12-08T05:58:48.114Z,-1.63
2022-12-08T05:59:21.603Z,-1.64
2022-12-08T05:59:55.015Z,-1.64
2022-12-08T06:00:28.476Z,-1.64
2022-12-08T06:01:01.944Z,-1.63
2022-12-08T06:01:35.487Z,-1.64
2022-12-08T06:02:09.114Z,-1.62
2022-12-08T06:02:42.787Z,-1.60
2022-12-08T06:03:18.262Z,-1.60
2022-12-08T06:03:52.367Z,-1.59
2022-12-08T06:04:25.777Z,-1.60
2022-12-08T06:04:59.137Z,-1.59
2022-12-08T06:05:34.249Z,-1.59
2022-12-08T06:06:07.664Z,-1.60
2022-12-08T06:06:41.181Z,-1.59
2022-12-08T06:07:16.296Z,-1.60
2022-12-08T06:07:49.827Z,-1.59
2022-12-08T06:08:23.336Z,-1.60
2022-12-08T06:08:56.821Z,-1.59
2022-12-08T06:09:30.303Z,-1.59
2022-12-08T06:10:04.991Z,-1.59
2022-12-08T06:10:40.125Z,-1.57
2022-12-08T06:11:25.287Z,-1.57
2022-12-08T06:11:58.740Z,-1.56
2022-12-08T06:12:32.175Z,-1.57
2022-12-08T06:13:05.790Z,-1.56
2022-12-08T06:13:39.140Z,-1.56
2022-12-08T06:14:12.970Z,-1.55
2022-12-08T06:14:46.328Z,-1.55
2022-12-08T06:15:19.845Z,-1.57
2022-12-08T06:15:53.309Z,-1.59
2022-12-08T06:16:28.563Z,-1.60
2022-12-08T06:17:02.128Z,-1.60
2022-12-08T06:17:35.621Z,-1.61
2022-12-08T06:18:10.440Z,-1.61
2022-12-08T06:18:44.464Z,-1.60
2022-12-08T06:19:17.882Z,-1.61
2022-12-08T06:19:51.212Z,-1.62
2022-12-08T06:20:24.604Z,-1.62
2022-12-08T06:21:10.054Z,-1.63
2022-12-08T06:21:43.577Z,-1.64
2022-12-08T06:22:16.925Z,-1.65
2022-12-08T06:22:50.285Z,-1.65
2022-12-08T06:23:23.678Z,-1.65
2022-12-08T06:23:57.090Z,-1.65
2022-12-08T06:24:30.654Z,-1.66
2022-12-08T06:25:07.292Z,-1.65
2022-12-08T06:25:43.228Z,-1.64
2022-12-08T06:26:17.838Z,-1.65
2022-12-08T06:26:51.241Z,-1.65
2022-12-08T06:27:26.926Z,-1.64
2022-12-08T06:28:00.360Z,-1.64
2022-12-08T06:28:34.107Z,-1.63
2022-12-08T06:29:08.082Z,-1.63
2022-12-08T06:29:41.557Z,-1.62
2022-12-08T06:30:15.328Z,-1.62
2022-12-08T06:30:48.724Z,-1.61
2022-12-08T06:31:26.596Z,-1.60
2022-12-08T06:32:00.153Z,-1.63
2022-12-08T06:32:33.612Z,-1.62
2022-12-08T06:33:06.980Z,-1.62
2022-12-08T06:33:40.705Z,-1.63
2022-12-08T06:34:14.105Z,-1.62
2022-12-08T06:34:47.572Z,-1.63
2022-12-08T06:35:21.160Z,-1.63
2022-12-08T06:35:54.591Z,-1.62
2022-12-08T06:36:28.811Z,-1.62
2022-12-08T06:37:02.255Z,-1.62
2022-12-08T06:37:35.650Z,-1.62
2022-12-08T06:38:09.080Z,-1.63
2022-12-08T06:38:43.993Z,-1.62
2022-12-08T06:39:17.663Z,-1.63
2022-12-08T06:39:52.000Z,-1.62
2022-12-08T06:40:25.351Z,-1.62
2022-12-08T06:40:59.588Z,-1.61
2022-12-08T06:41:33.012Z,-1.61
2022-12-08T06:42:25.189Z,-1.61
2022-12-08T06:42:58.527Z,-1.63
2022-12-08T06:43:33.320Z,-1.72
2022-12-08T06:44:06.713Z,-1.64
2022-12-08T06:44:40.591Z,-1.63
2022-12-08T06:45:18.373Z,-1.62
2022-12-08T06:45:52.658Z,-1.64
2022-12-08T06:46:26.689Z,-1.64
2022-12-08T06:47:00.177Z,-1.65
2022-12-08T06:47:34.028Z,-1.66
2022-12-08T06:48:07.539Z,-1.66
2022-12-08T06:48:41.687Z,-1.67
2022-12-08T06:49:15.446Z,-1.67
2022-12-08T06:49:48.979Z,-1.67
2022-12-08T06:50:22.371Z,-1.67
2022-12-08T06:50:56.021Z,-1.67
2022-12-08T06:51:29.418Z,-1.67
2022-12-08T06:52:02.872Z,-1.67
2022-12-08T06:52:43.212Z,-1.67
2022-12-08T06:53:21.285Z,-1.69
2022-12-08T06:53:54.832Z,-1.70
2022-12-08T06:54:28.328Z,-1.69
2022-12-08T06:55:01.750Z,-1.69
2022-12-08T06:56:30.276Z,-1.72
2022-12-08T06:57:04.772Z,-1.71
2022-12-08T06:57:38.343Z,-1.71
2022-12-08T06:58:13.558Z,-1.71
2022-12-08T06:58:52.097Z,-1.70
2022-12-08T06:59:26.384Z,-1.69
2022-12-08T06:59:59.821Z,-1.69
2022-12-08T07:00:33.225Z,-1.69
2022-12-08T07:01:12.262Z,-1.70
2022-12-08T07:01:46.697Z,-1.69
2022-12-08T07:02:20.805Z,-1.69
2022-12-08T07:02:54.451Z,-1.68
2022-12-08T07:03:27.821Z,-1.68
2022-12-08T07:04:01.193Z,-1.67
2022-12-08T07:04:34.611Z,-1.66
2022-12-08T07:05:08.085Z,-1.65
2022-12-08T07:05:41.652Z,-1.64
2022-12-08T07:06:18.755Z,-1.62
2022-12-08T07:06:52.274Z,-1.61
2022-12-08T07:07:25.825Z,-1.61
2022-12-08T07:07:59.358Z,-1.59
2022-12-08T07:08:34.918Z,-1.58
2022-12-08T07:09:08.514Z,-1.57
2022-12-08T07:09:41.942Z,-1.56
2022-12-08T07:10:15.449Z,-1.55
2022-12-08T07:10:48.859Z,-1.53
2022-12-08T07:11:22.818Z,-1.51
2022-12-08T07:11:56.335Z,-1.50
2022-12-08T07:12:29.616Z,-1.48
2022-12-08T07:13:03.041Z,-1.47
2022-12-08T07:13:36.517Z,-1.47
2022-12-08T07:14:11.030Z,-1.46
2022-12-08T07:14:44.586Z,-1.45
2022-12-08T07:15:18.195Z,-1.45
2022-12-08T07:15:51.677Z,-1.46
2022-12-08T07:16:25.137Z,-1.48
2022-12-08T07:16:58.748Z,-1.44
2022-12-08T07:17:32.166Z,-1.43
2022-12-08T07:18:05.669Z,-1.42
2022-12-08T07:18:39.461Z,-1.40
2022-12-08T07:19:12.851Z,-1.39
2022-12-08T07:19:46.318Z,-1.38
2022-12-08T07:20:19.762Z,-1.34
2022-12-08T07:20:53.135Z,-1.31
2022-12-08T07:21:26.631Z,-1.29
2022-12-08T07:21:59.964Z,-1.27
2022-12-08T07:22:33.300Z,-1.26
2022-12-08T07:23:06.811Z,-1.24
2022-12-08T07:23:40.317Z,-1.21
2022-12-08T07:24:13.987Z,-1.17
2022-12-08T07:24:47.407Z,-1.15
2022-12-08T07:25:21.634Z,-1.12
2022-12-08T07:25:55.139Z,-1.10
2022-12-08T07:26:28.640Z,-1.07
2022-12-08T07:27:02.128Z,-1.03
2022-12-08T07:27:35.565Z,-0.99
2022-12-08T07:28:10.842Z,-0.96
2022-12-08T07:28:44.761Z,-0.95
2022-12-08T07:29:21.717Z,-0.93
2022-12-08T07:29:58.270Z,-0.91
2022-12-08T07:30:31.744Z,-0.91
2022-12-08T07:31:07.193Z,-0.90
2022-12-08T07:31:40.665Z,-0.89
2022-12-08T07:32:14.254Z,-0.87
2022-12-08T07:32:47.762Z,-0.87
2022-12-08T07:33:21.180Z,-0.84
2022-12-08T07:33:55.856Z,-0.82
2022-12-08T07:34:29.426Z,-0.81
2022-12-08T07:35:02.840Z,-0.79
2022-12-08T07:35:36.332Z,-0.78
2022-12-08T07:36:09.911Z,-0.78
2022-12-08T07:36:43.369Z,-0.76
2022-12-08T07:37:16.890Z,-0.75
2022-12-08T07:37:50.344Z,-0.73
2022-12-08T07:38:24.331Z,-0.71
2022-12-08T07:38:57.828Z,-0.69
2022-12-08T07:39:31.279Z,-0.69
2022-12-08T07:40:07.072Z,-0.65
2022-12-08T07:40:40.906Z,-0.62
2022-12-08T07:41:18.761Z,-0.61
2022-12-08T07:41:52.216Z,-0.58
2022-12-08T07:42:25.645Z,-0.57
2022-12-08T07:42:59.208Z,-0.54
2022-12-08T07:43:33.036Z,-0.51
2022-12-08T07:44:06.470Z,-0.51
2022-12-08T07:44:39.883Z,-0.48
2022-12-08T07:45:13.490Z,-0.46
2022-12-08T07:45:47.278Z,-0.44
2022-12-08T07:46:23.009Z,-0.42
2022-12-08T07:46:56.403Z,-0.39
2022-12-08T07:47:29.759Z,-0.37
2022-12-08T07:48:03.202Z,-0.35
2022-12-08T07:48:36.545Z,-0.34
2022-12-08T07:49:09.862Z,-0.31
2022-12-08T07:49:43.375Z,-0.29
2022-12-08T07:50:16.986Z,-0.27
2022-12-08T07:50:50.441Z,-0.24
2022-12-08T07:51:25.221Z,-0.22
2022-12-08T07:51:58.742Z,-0.20
2022-12-08T07:52:34.642Z,-0.17
2022-12-08T07:53:08.591Z,-0.12
2022-12-08T07:53:48.412Z,-0.09
2022-12-08T07:54:25.193Z,-0.02